Time;durP1;ratioP1;P1;durP2;ratioP2;P2;SDS_P1;SDS_P2;PMS_P1;PMS_P2;Temp;Humidity;BMP_temperature;BMP_pressure;BME280_temperature;BME280_humidity;BME280_pressure;Samples;Min_cycle;Max_cycle;Signal;HPM_P1;HPM_P2
2022/05/10 00:01:00;;;;;;;22.38;14.45;;;;;;;16.48;60.84;101786.25;3605748;39;20057;-66
2022/05/10 00:03:37;;;;;;;16.58;14.75;;;;;;;16.48;60.68;101786.25;3603496;39;20163;-67
2022/05/10 00:06:06;;;;;;;20.98;15.15;;;;;;;16.42;60.82;101786.69;3605697;39;20054;-67
2022/05/10 00:08:32;;;;;;;22.05;15.70;;;;;;;16.35;61.62;101793.53;3605267;39;20437;-67
2022/05/10 00:10:58;;;;;;;22.38;14.73;;;;;;;16.01;61.57;101735.34;3603864;39;20059;-67
2022/05/10 00:13:26;;;;;;;20.58;15.48;;;;;;;16.28;61.93;101792.25;3604736;39;20135;-67
2022/05/10 00:15:53;;;;;;;22.77;15.73;;;;;;;16.20;61.94;101789.19;3606294;39;20055;-67
2022/05/10 00:18:25;;;;;;;20.52;15.73;;;;;;;16.11;62.55;101776.25;3603311;39;20066;-67
2022/05/10 00:20:50;;;;;;;22.73;15.90;;;;;;;16.10;62.07;101774.53;3608938;39;20095;-69
2022/05/10 00:23:16;;;;;;;22.45;16.48;;;;;;;16.10;62.46;101771.81;3604810;39;20335;-67
2022/05/10 00:25:42;;;;;;;18.55;15.43;;;;;;;16.01;62.88;101766.06;3607934;39;20058;-66
2022/05/10 00:28:09;;;;;;;20.05;15.70;;;;;;;15.99;62.88;101764.44;3607578;39;20043;-67
2022/05/10 00:30:34;;;;;;;23.25;16.73;;;;;;;15.99;62.31;101770.72;3607782;39;20384;-67
2022/05/10 00:33:00;;;;;;;25.08;18.90;;;;;;;15.96;62.89;101773.66;3607233;39;20043;-66
2022/05/10 00:35:33;;;;;;;22.23;16.90;;;;;;;15.86;63.90;101767.13;3605570;39;20182;-67
2022/05/10 00:38:03;;;;;;;24.38;17.65;;;;;;;15.81;64.34;101765.72;3606505;39;20332;-66
2022/05/10 00:40:35;;;;;;;18.25;16.25;;;;;;;15.74;64.52;101765.28;3597202;39;20325;-68
2022/05/10 00:43:20;;;;;;;20.50;16.25;;;;;;;15.69;64.72;101764.69;3604828;39;20061;-66
2022/05/10 00:45:57;;;;;;;21.83;16.58;;;;;;;15.54;64.69;101756.63;3604409;39;20063;-66
2022/05/10 00:48:50;;;;;;;20.00;16.17;;;;;;;15.56;64.85;101762.78;3607467;39;20896;-67
2022/05/10 00:51:43;;;;;;;22.20;16.65;;;;;;;15.51;65.51;101756.84;3604623;39;20039;-66
2022/05/10 00:54:35;;;;;;;24.02;17.75;;;;;;;15.47;65.26;101760.69;3607412;39;20047;-65
2022/05/10 00:57:16;;;;;;;21.30;17.15;;;;;;;15.36;65.18;101736.19;3607042;39;20067;-67
2022/05/10 01:00:13;;;;;;;22.90;16.77;;;;;;;15.42;65.68;101741.19;3608949;39;20139;-67
2022/05/10 01:02:47;;;;;;;28.30;17.13;;;;;;;15.40;65.33;101753.97;3606708;39;20305;-69
2022/05/10 01:05:23;;;;;;;24.52;16.95;;;;;;;15.40;65.29;101747.69;3605017;39;20059;-66
2022/05/10 01:08:21;;;;;;;24.17;16.45;;;;;;;15.34;65.35;101738.13;3609499;39;20317;-66
2022/05/10 01:11:10;;;;;;;22.80;18.15;;;;;;;15.33;65.75;101741.81;3605424;39;20302;-66
2022/05/10 01:14:16;;;;;;;25.83;17.95;;;;;;;15.28;65.64;101738.53;3606797;39;20313;-66
2022/05/10 01:16:42;;;;;;;23.65;17.00;;;;;;;15.26;65.90;101743.22;3606852;39;20055;-67
2022/05/10 01:19:07;;;;;;;23.02;16.98;;;;;;;15.22;66.11;101738.94;3609628;39;20043;-67
2022/05/10 01:22:36;;;;;;;21.05;17.23;;;;;;;15.16;66.50;101728.50;3607627;39;20412;-67
2022/05/10 01:25:39;;;;;;;24.95;17.80;;;;;;;15.13;67.15;101728.72;3580053;40;20055;-68
2022/05/10 01:28:39;;;;;;;23.50;17.35;;;;;;;15.07;67.44;101725.47;3577902;40;20264;-66
2022/05/10 01:31:27;;;;;;;24.67;18.00;;;;;;;15.04;68.08;101720.25;3608307;39;20184;-67
2022/05/10 01:34:14;;;;;;;25.25;18.48;;;;;;;14.99;68.31;101716.09;3605789;39;20466;-66
2022/05/10 01:36:59;;;;;;;25.10;18.05;;;;;;;14.98;67.99;101709.81;3604626;39;20419;-66
2022/05/10 01:39:35;;;;;;;25.10;17.98;;;;;;;14.97;68.08;101710.81;3606421;39;20278;-66
2022/05/10 01:42:30;;;;;;;23.83;17.63;;;;;;;14.97;67.89;101715.31;3604460;39;20098;-66
2022/05/10 01:45:12;;;;;;;23.40;18.33;;;;;;;14.94;67.84;101702.00;3607819;39;20055;-66
2022/05/10 01:48:00;;;;;;;23.50;18.05;;;;;;;14.69;68.02;101664.88;3606437;39;20099;-67
2022/05/10 01:50:41;;;;;;;24.63;18.90;;;;;;;14.92;68.26;101702.09;3605546;39;20062;-66
2022/05/10 01:53:19;;;;;;;26.35;19.25;;;;;;;14.88;68.07;101700.59;3605923;39;20062;-66
2022/05/10 01:55:50;;;;;;;23.55;18.92;;;;;;;14.86;68.62;101697.09;3605157;39;20047;-66
2022/05/10 01:58:29;;;;;;;24.40;18.17;;;;;;;14.83;68.29;101695.44;3603502;39;20110;-66
2022/05/10 02:01:13;;;;;;;23.55;18.58;;;;;;;14.58;68.48;101655.59;3609413;39;20063;-66
2022/05/10 02:04:05;;;;;;;21.83;17.90;;;;;;;14.79;68.58;101693.94;3604284;39;20118;-66
2022/05/10 02:06:49;;;;;;;23.52;18.33;;;;;;;14.79;69.19;101693.94;3605868;39;20055;-66
2022/05/10 02:09:23;;;;;;;;;;;;;;;14.78;68.63;101688.59;3608011;39;20050;-67
2022/05/10 02:11:58;;;;;;;;;;;;;;;14.77;68.68;101682.31;3606641;39;19947;-67
2022/05/10 02:14:46;;;;;;;24.63;18.83;;;;;;;14.79;68.47;101682.25;3605626;39;19940;-66
2022/05/10 02:17:49;;;;;;;24.30;18.63;;;;;;;14.68;68.51;101652.28;3603967;39;20047;-66
2022/05/10 02:20:37;;;;;;;23.85;19.13;;;;;;;14.65;68.85;101664.19;3604548;39;20067;-66
2022/05/10 02:23:16;;;;;;;23.80;17.85;;;;;;;14.76;69.28;101679.72;3604707;39;20099;-67
2022/05/10 02:26:00;;;;;;;24.58;18.75;;;;;;;14.74;68.69;101671.69;3605607;39;20112;-66
2022/05/10 02:28:45;;;;;;;23.20;18.35;;;;;;;14.77;69.28;101673.34;3600177;39;20116;-66
2022/05/10 02:34:33;;;;;;;28.30;19.10;;;;;;;14.47;68.79;101595.91;3604619;39;20058;-67
2022/05/10 02:36:59;;;;;;;23.60;18.73;;;;;;;14.86;68.71;101660.06;3605810;39;20306;-66
2022/05/10 02:39:24;;;;;;;21.05;17.48;;;;;;;14.90;68.47;101649.03;3605326;39;20102;-67
2022/05/10 02:41:50;;;;;;;20.30;18.13;;;;;;;15.00;67.65;101658.25;3606422;39;20047;-68
2022/05/10 02:44:17;;;;;;;22.17;18.35;;;;;;;15.02;67.63;101657.19;3607314;39;20067;-65
2022/05/10 02:46:42;;;;;;;24.20;17.52;;;;;;;14.95;68.09;101644.19;3609699;39;20055;-66
2022/05/10 02:49:08;;;;;;;23.23;19.20;;;;;;;15.00;68.23;101648.31;3606362;39;20054;-66
2022/05/10 02:51:33;;;;;;;22.90;18.75;;;;;;;14.98;68.01;101650.25;3607925;39;20381;-66
2022/05/10 02:53:59;;;;;;;23.83;17.52;;;;;;;14.98;68.33;101634.00;3607241;39;20051;-68
2022/05/10 02:56:29;;;;;;;21.90;17.77;;;;;;;15.01;68.01;101641.94;3606934;39;20075;-67
2022/05/10 02:59:33;;;;;;;23.20;18.08;;;;;;;14.94;68.41;101626.19;3608898;39;20088;-66
2022/05/10 03:02:27;;;;;;;21.60;17.67;;;;;;;15.00;68.20;101632.09;3588986;39;20095;-66
2022/05/10 03:04:57;;;;;;;21.85;18.58;;;;;;;15.00;68.30;101626.66;3607254;39;20047;-66
2022/05/10 03:07:25;;;;;;;24.17;17.20;;;;;;;14.99;68.40;101634.88;3602389;39;20067;-66
2022/05/10 03:09:51;;;;;;;20.63;17.40;;;;;;;15.00;68.30;101623.97;3603435;39;20370;-66
2022/05/10 03:12:16;;;;;;;25.25;17.98;;;;;;;14.98;68.69;101620.47;3603360;39;20069;-65
2022/05/10 03:14:42;;;;;;;22.35;18.15;;;;;;;14.94;68.38;101607.22;3605513;39;20058;-66
2022/05/10 03:17:10;;;;;;;23.60;17.80;;;;;;;15.00;68.42;101618.53;3605232;39;20390;-67
2022/05/10 03:19:37;;;;;;;21.00;17.40;;;;;;;14.51;68.54;101529.81;3603319;39;20076;-66
2022/05/10 03:22:04;;;;;;;26.48;18.17;;;;;;;15.01;68.38;101612.16;3608974;39;20035;-66
2022/05/10 03:24:31;;;;;;;22.48;17.38;;;;;;;14.98;68.73;101609.66;3606015;39;20066;-66
2022/05/10 03:27:02;;;;;;;21.35;16.83;;;;;;;14.97;68.53;101604.31;3606288;39;20405;-65
2022/05/10 03:29:28;;;;;;;22.52;16.38;;;;;;;15.04;68.01;101608.38;3605056;39;20050;-67
2022/05/10 03:31:56;;;;;;;21.48;17.27;;;;;;;15.08;68.31;101602.63;3607254;39;20053;-67
2022/05/10 03:37:06;;;;;;;21.88;17.35;;;;;;;15.06;68.22;101603.69;3607272;39;20494;-67
2022/05/10 03:39:32;;;;;;;21.35;17.08;;;;;;;15.08;68.13;101601.75;3607480;39;20066;-66
2022/05/10 03:41:58;;;;;;;23.85;16.50;;;;;;;15.09;67.82;101604.34;3609634;39;20051;-67
2022/05/10 03:44:24;;;;;;;25.20;17.20;;;;;;;15.06;67.80;101588.34;3607732;39;20053;-67
2022/05/10 03:46:50;;;;;;;21.88;16.85;;;;;;;15.14;67.96;101601.34;3607578;39;20401;-67
2022/05/10 03:49:17;;;;;;;23.48;17.90;;;;;;;15.14;68.15;101595.94;3607976;39;20054;-65
2022/05/10 03:51:42;;;;;;;20.05;16.52;;;;;;;15.11;68.14;101585.31;3606349;39;20051;-66
2022/05/10 03:54:08;;;;;;;23.17;17.52;;;;;;;15.18;67.51;101593.88;3602814;39;20047;-66
2022/05/10 03:56:34;;;;;;;25.27;17.08;;;;;;;15.20;67.88;101591.94;3606296;39;20079;-67
2022/05/10 03:59:00;;;;;;;27.83;18.52;;;;;;;15.21;67.56;101589.09;3609572;39;20066;-66
2022/05/10 04:01:25;;;;;;;24.70;17.23;;;;;;;15.19;67.08;101585.66;3606221;39;20066;-67
2022/05/10 04:03:51;;;;;;;22.63;16.85;;;;;;;15.24;67.19;101585.31;3606096;39;20099;-67
2022/05/10 04:06:17;;;;;;;25.27;17.40;;;;;;;15.25;67.06;101577.06;3604024;39;20074;-66
2022/05/10 04:08:43;;;;;;;21.63;17.23;;;;;;;15.19;66.91;101563.09;3605697;39;20056;-66
2022/05/10 04:11:11;;;;;;;26.23;17.45;;;;;;;15.29;67.16;101573.19;3604358;39;20070;-68
2022/05/10 04:13:40;;;;;;;21.67;17.08;;;;;;;15.37;66.87;101588.03;3606483;39;20055;-67
2022/05/10 04:16:07;;;;;;;26.15;18.02;;;;;;;15.42;66.44;101588.59;3609197;39;20050;-67
2022/05/10 04:18:33;;;;;;;22.88;17.90;;;;;;;15.39;66.63;101578.84;3602636;39;20063;-65
2022/05/10 04:20:59;;;;;;;25.83;17.90;;;;;;;15.33;66.66;101568.44;3605548;39;20364;-65
2022/05/10 04:23:26;;;;;;;21.20;16.15;;;;;;;15.50;65.55;101587.06;3607244;39;20059;-65
2022/05/10 04:25:52;;;;;;;25.27;17.23;;;;;;;15.51;66.20;101583.41;3605014;39;20044;-65
2022/05/10 04:28:18;;;;;;;23.98;17.58;;;;;;;15.59;65.80;101576.56;3605934;39;20043;-66
2022/05/10 04:30:44;;;;;;;25.42;17.17;;;;;;;15.66;65.32;101581.44;3605749;39;20424;-65
2022/05/10 04:33:10;;;;;;;27.48;17.02;;;;;;;15.70;65.69;101577.56;3605096;39;20059;-64
2022/05/10 04:35:35;;;;;;;29.15;18.60;;;;;;;15.77;65.24;101576.16;3605771;39;20069;-65
2022/05/10 04:38:05;;;;;;;22.65;17.23;;;;;;;15.82;64.98;101574.94;3608470;39;20147;-65
2022/05/10 04:43:17;;;;;;;27.58;17.27;;;;;;;15.91;64.42;101572.44;3604839;39;20140;-65
2022/05/10 04:45:42;;;;;;;24.90;16.88;;;;;;;16.01;64.47;101581.63;3591402;39;20703;-65
2022/05/10 04:48:08;;;;;;;23.23;17.02;;;;;;;15.95;64.12;101555.00;3605361;39;20055;-66
2022/05/10 04:50:34;;;;;;;23.15;17.08;;;;;;;15.63;64.04;101499.47;3634492;22;20316;-61
2022/05/10 04:53:00;;;;;;;23.27;15.45;;;;;;;16.11;63.98;101567.41;3597467;39;20071;-61
2022/05/10 04:55:26;;;;;;;26.08;16.75;;;;;;;16.15;64.52;101571.66;3595953;39;20052;-61
2022/05/10 04:57:51;;;;;;;23.27;16.35;;;;;;;16.20;64.03;101566.72;3587527;39;20059;-61
2022/05/10 05:00:18;;;;;;;25.85;16.60;;;;;;;16.25;64.82;101562.69;3592672;39;20097;-61
2022/05/10 05:02:46;;;;;;;27.02;17.52;;;;;;;16.34;63.93;101566.59;3589131;40;20047;-61
2022/05/10 05:05:13;;;;;;;21.38;16.08;;;;;;;16.22;62.75;101535.81;3589557;40;20052;-61
2022/05/10 05:07:39;;;;;;;20.55;15.98;;;;;;;16.53;61.71;101570.66;3587809;40;21294;-62
2022/05/10 05:10:07;;;;;;;23.92;16.10;;;;;;;16.60;61.56;101572.78;3590580;40;20083;-61
2022/05/10 05:12:34;;;;;;;23.83;15.50;;;;;;;16.70;61.92;101565.66;3588712;39;20096;-60
2022/05/10 05:15:04;;;;;;;21.73;14.02;;;;;;;16.77;60.49;101563.38;3592078;39;20060;-61
2022/05/10 05:17:29;;;;;;;23.95;14.07;;;;;;;16.89;60.75;101573.31;3588057;39;20404;-62
2022/05/10 05:19:55;;;;;;;16.80;14.05;;;;;;;16.98;59.95;101565.44;3590635;39;20167;-60
2022/05/10 05:22:20;;;;;;;20.85;14.27;;;;;;;17.06;59.84;101573.84;3589856;39;20048;-63
2022/05/10 05:24:46;;;;;;;18.83;13.25;;;;;;;17.13;59.46;101575.13;3589352;39;20052;-61
2022/05/10 05:27:12;;;;;;;18.35;13.63;;;;;;;17.14;59.09;101568.69;3591499;39;20382;-61
2022/05/10 05:29:37;;;;;;;14.85;13.10;;;;;;;17.25;59.04;101568.72;3587537;39;20664;-62
2022/05/10 05:32:10;;;;;;;17.35;12.82;;;;;;;17.30;58.83;101562.94;3590105;39;20048;-61
2022/05/10 05:34:36;;;;;;;17.92;13.00;;;;;;;17.36;58.65;101568.75;3588325;39;20072;-61
2022/05/10 05:39:47;;;;;;;15.07;12.40;;;;;;;17.46;58.97;101576.19;3589955;39;20421;-61
2022/05/10 05:42:13;;;;;;;20.30;12.90;;;;;;;17.51;58.57;101571.25;3590443;40;20067;-61
2022/05/10 05:44:38;;;;;;;17.02;12.80;;;;;;;17.55;58.32;101575.47;3588281;39;20437;-61
2022/05/10 05:47:04;;;;;;;16.65;13.00;;;;;;;17.59;58.78;101576.94;3589209;39;20047;-61
2022/05/10 05:49:30;;;;;;;17.13;13.48;;;;;;;17.66;57.92;101577.31;3588683;39;20107;-61
2022/05/10 05:51:58;;;;;;;16.30;12.80;;;;;;;17.74;58.30;101564.84;3590776;39;20384;-61
2022/05/10 05:54:24;;;;;;;16.50;12.73;;;;;;;17.80;58.31;101568.97;3588985;39;20055;-60
2022/05/10 05:56:57;;;;;;;17.20;12.65;;;;;;;17.87;57.62;101564.75;3588869;40;20132;-61
2022/05/10 05:59:22;;;;;;;15.35;11.75;;;;;;;17.94;57.67;101562.41;3589856;39;20399;-61
2022/05/10 06:01:48;;;;;;;14.07;12.00;;;;;;;18.03;58.24;101561.66;3586693;39;20056;-63
2022/05/10 06:04:13;;;;;;;17.60;11.88;;;;;;;18.07;57.72;101555.81;3588266;40;20453;-62
2022/05/10 06:06:39;;;;;;;13.75;11.07;;;;;;;18.11;57.89;101551.00;3586368;39;20064;-62
2022/05/10 06:09:05;;;;;;;13.25;11.07;;;;;;;18.19;56.99;101553.94;3590210;39;20063;-62
2022/05/10 06:11:30;;;;;;;14.15;10.93;;;;;;;18.28;57.25;101557.78;3589308;39;20383;-61
2022/05/10 06:13:56;;;;;;;14.82;10.85;;;;;;;18.36;56.84;101560.72;3588783;39;20063;-60
2022/05/10 06:16:21;;;;;;;13.77;10.40;;;;;;;18.44;57.27;101563.66;3587917;40;20051;-61
2022/05/10 06:18:47;;;;;;;12.88;10.27;;;;;;;18.54;56.14;101561.03;3588505;40;20349;-61
2022/05/10 06:21:12;;;;;;;12.52;10.13;;;;;;;18.66;56.53;101557.28;3589055;39;20062;-63
2022/05/10 06:23:38;;;;;;;13.10;10.10;;;;;;;18.74;56.07;101549.38;3586923;40;20071;-62
2022/05/10 06:26:04;;;;;;;11.27;9.73;;;;;;;18.86;55.96;101546.59;3587942;39;20379;-63
2022/05/10 06:28:29;;;;;;;12.63;9.10;;;;;;;18.95;55.23;101540.34;3587611;39;20078;-62
2022/05/10 06:30:56;;;;;;;9.73;8.82;;;;;;;19.09;55.29;101552.78;3589855;39;20060;-61
2022/05/10 06:33:22;;;;;;;9.32;8.43;;;;;;;19.21;55.35;101547.13;3589438;39;20044;-62
2022/05/10 06:35:48;;;;;;;11.30;8.90;;;;;;;19.31;55.55;101546.34;3580324;40;20481;-61
2022/05/10 06:38:16;;;;;;;9.48;8.43;;;;;;;19.38;55.00;101544.81;3590586;39;20294;-62
2022/05/10 06:40:44;;;;;;;9.60;8.20;;;;;;;19.45;53.98;101537.81;3588783;39;20366;-62
2022/05/10 06:43:11;;;;;;;11.90;8.85;;;;;;;19.52;54.50;101543.59;3590495;39;20043;-61
2022/05/10 06:45:38;;;;;;;10.18;8.35;;;;;;;19.58;53.49;101543.91;3588441;39;21319;-60
2022/05/10 06:48:04;;;;;;;9.60;8.05;;;;;;;19.65;55.03;101544.25;3589173;39;20055;-62
2022/05/10 06:50:31;;;;;;;11.05;8.15;;;;;;;19.71;53.97;101543.72;3587968;39;20153;-61
2022/05/10 06:52:59;;;;;;;11.25;7.75;;;;;;;19.74;53.55;101545.31;3588154;39;20657;-61
2022/05/10 06:55:28;;;;;;;10.68;7.57;;;;;;;19.80;53.51;101537.44;3588333;40;20044;-61
2022/05/10 06:57:54;;;;;;;13.23;8.00;;;;;;;19.85;54.31;101535.19;3588023;40;20054;-62
2022/05/10 07:00:20;;;;;;;13.43;7.70;;;;;;;19.66;52.79;101492.31;3579520;39;20058;-62
2022/05/10 07:02:46;;;;;;;7.90;7.10;;;;;;;20.03;53.26;101540.81;3588593;40;20048;-61
2022/05/10 07:05:15;;;;;;;11.57;7.80;;;;;;;20.10;52.99;101532.94;3586111;39;20044;-62
2022/05/10 07:07:42;;;;;;;9.02;6.55;;;;;;;20.20;53.91;101527.50;3587820;39;20070;-62
2022/05/10 07:10:10;;;;;;;9.57;6.95;;;;;;;20.31;52.36;101527.38;3589318;39;20055;-62
2022/05/10 07:12:43;;;;;;;9.13;7.20;;;;;;;20.37;52.03;101532.28;3587425;39;20114;-62
2022/05/10 07:15:14;;;;;;;16.17;10.40;;;;;;;20.53;52.02;101529.03;3588905;39;20044;-61
2022/05/10 07:17:40;;;;;;;11.75;7.15;;;;;;;20.68;52.37;101524.88;3587092;39;20060;-61
2022/05/10 07:20:12;;;;;;;10.55;7.43;;;;;;;20.87;52.23;101521.28;3587254;40;20054;-62
2022/05/10 07:22:38;;;;;;;11.20;6.97;;;;;;;21.00;51.34;101521.84;3584766;40;20056;-61
2022/05/10 07:25:05;;;;;;;11.05;6.70;;;;;;;21.12;50.56;101510.72;3580148;40;20491;-62
2022/05/10 07:27:31;;;;;;;10.32;6.72;;;;;;;21.27;51.28;101517.47;3587688;39;20052;-62
2022/05/10 07:29:57;;;;;;;7.10;6.40;;;;;;;21.48;50.35;101517.31;3588409;40;20063;-62
2022/05/10 07:32:24;;;;;;;8.07;6.30;;;;;;;21.61;49.24;101508.75;3587167;39;20047;-61
2022/05/10 07:34:50;;;;;;;10.55;5.90;;;;;;;21.74;49.39;101514.75;3590160;39;20062;-61
2022/05/10 07:37:16;;;;;;;6.95;5.47;;;;;;;21.75;49.42;101510.97;3586883;39;20057;-61
2022/05/10 07:39:42;;;;;;;7.97;5.75;;;;;;;21.83;49.54;101511.09;3587086;39;20096;-62
2022/05/10 07:42:08;;;;;;;7.47;5.22;;;;;;;21.88;48.86;101503.28;3588725;39;20063;-61
2022/05/10 07:44:34;;;;;;;9.02;5.47;;;;;;;22.00;47.96;101512.16;3587364;39;20064;-61
2022/05/10 07:47:00;;;;;;;7.80;5.55;;;;;;;21.95;47.53;101484.41;3585292;39;20354;-61
2022/05/10 07:49:26;;;;;;;6.55;5.40;;;;;;;22.06;47.10;101473.22;3588170;40;20055;-62
2022/05/10 07:51:52;;;;;;;10.90;5.18;;;;;;;22.42;47.06;101509.78;3587771;40;20056;-61
2022/05/10 07:54:19;;;;;;;6.60;5.10;;;;;;;22.48;46.05;101509.13;3588697;39;20055;-61
2022/05/10 07:56:44;;;;;;;9.93;5.10;;;;;;;22.50;46.79;101505.38;3587939;39;20407;-61
2022/05/10 07:59:10;;;;;;;9.27;5.72;;;;;;;22.61;46.18;101503.28;3589773;39;20055;-61
2022/05/10 08:01:36;;;;;;;9.65;5.15;;;;;;;22.65;46.24;101512.03;3588656;39;20133;-62
2022/05/10 08:04:04;;;;;;;7.53;5.03;;;;;;;22.69;45.48;101503.34;3590856;39;20079;-62
2022/05/10 08:06:30;;;;;;;6.85;5.13;;;;;;;22.78;45.85;101496.06;3589266;39;20068;-61
2022/05/10 08:08:56;;;;;;;8.98;4.75;;;;;;;22.86;45.20;101507.06;3590531;39;20051;-61
2022/05/10 08:11:22;;;;;;;8.05;5.10;;;;;;;22.96;46.53;101501.53;3590231;39;20087;-62
2022/05/10 08:13:48;;;;;;;6.82;4.55;;;;;;;23.03;45.08;101499.03;3590057;39;20113;-60
2022/05/10 08:16:16;;;;;;;6.15;4.90;;;;;;;23.06;44.76;101495.97;3588665;39;20055;-62
2022/05/10 08:18:45;;;;;;;7.00;5.22;;;;;;;22.93;44.36;101491.75;3589105;39;20434;-62
2022/05/10 08:21:13;;;;;;;7.80;4.88;;;;;;;22.86;44.94;101479.66;3589873;39;20078;-61
2022/05/10 08:23:40;;;;;;;7.25;4.97;;;;;;;23.00;44.97;101502.94;3587909;39;20060;-61
2022/05/10 08:26:08;;;;;;;10.63;5.22;;;;;;;22.97;44.66;101502.41;3590766;39;20478;-61
2022/05/10 08:28:36;;;;;;;13.07;6.07;;;;;;;23.01;45.39;101487.34;3587349;39;20066;-61
2022/05/10 08:31:06;;;;;;;8.50;5.35;;;;;;;23.00;44.08;101493.88;3589924;39;20052;-62
2022/05/10 08:33:36;;;;;;;8.35;5.13;;;;;;;22.99;45.03;101483.91;3588515;39;20085;-62
2022/05/10 08:36:02;;;;;;;6.72;5.30;;;;;;;22.77;44.18;101453.22;3589313;39;20095;-61
2022/05/10 08:38:30;;;;;;;8.52;4.55;;;;;;;22.87;44.69;101492.38;3588428;39;20055;-61
2022/05/10 08:41:10;;;;;;;7.45;4.90;;;;;;;22.76;44.69;101478.91;3588391;39;20379;-61
2022/05/10 08:44:01;;;;;;;12.40;4.80;;;;;;;22.77;44.98;101480.63;3571074;39;20044;-62
2022/05/10 08:46:36;;;;;;;10.75;4.93;;;;;;;22.74;45.56;101478.22;3586725;39;20133;-62
2022/05/10 08:49:18;;;;;;;7.60;4.93;;;;;;;22.76;44.45;101472.56;3590562;39;20059;-61
2022/05/10 08:51:44;;;;;;;10.30;4.40;;;;;;;22.68;44.78;101455.03;3589728;40;20044;-61
2022/05/10 08:54:10;;;;;;;9.25;4.93;;;;;;;22.84;44.87;101469.91;3590617;39;20256;-61
2022/05/10 08:57:02;;;;;;;9.30;4.70;;;;;;;22.84;44.47;101459.78;3587256;39;20060;-61
2022/05/10 09:00:07;;;;;;;7.22;5.18;;;;;;;22.93;44.15;101466.19;3587405;39;20060;-61
2022/05/10 09:02:47;;;;;;;7.43;4.40;;;;;;;23.04;43.67;101465.09;3587395;39;20357;-61
2022/05/10 09:05:42;;;;;;;7.28;4.32;;;;;;;23.37;43.84;101461.56;3586983;39;20397;-61
2022/05/10 09:08:29;;;;;;;6.13;4.50;;;;;;;23.76;42.37;101472.06;3589989;39;20043;-61
2022/05/10 09:11:03;;;;;;;6.97;4.22;;;;;;;23.83;41.95;101459.38;3589226;39;20054;-61
2022/05/10 09:13:31;;;;;;;15.77;5.03;;;;;;;23.99;41.58;101455.81;3587837;39;20040;-62
2022/05/10 09:16:01;;;;;;;6.93;4.22;;;;;;;24.32;42.48;101464.97;3588424;39;20060;-61
2022/05/10 09:18:39;;;;;;;6.38;4.47;;;;;;;24.55;41.26;101461.63;3589949;39;20062;-61
2022/05/10 09:21:26;;;;;;;6.03;4.60;;;;;;;24.68;40.30;101456.47;3589773;39;20434;-61
2022/05/10 09:24:26;;;;;;;5.25;4.47;;;;;;;24.83;41.57;101459.38;3586539;40;20058;-61
2022/05/10 09:27:01;;;;;;;5.40;4.40;;;;;;;24.92;40.23;101457.47;3588305;40;20062;-62
2022/05/10 09:29:40;;;;;;;5.68;4.57;;;;;;;24.89;40.39;101446.81;3588966;39;20051;-62
2022/05/10 09:35:24;;;;;;;9.75;4.63;;;;;;;24.89;40.59;101453.19;3588832;40;20059;-62
2022/05/10 09:38:09;;;;;;;10.50;4.65;;;;;;;24.90;40.32;101443.06;3588479;40;20058;-62
2022/05/10 09:40:48;;;;;;;6.95;4.60;;;;;;;24.98;40.69;101440.28;3586662;39;20064;-62
2022/05/10 09:43:32;;;;;;;7.03;4.65;;;;;;;25.12;39.82;101455.19;3588993;40;20129;-62
2022/05/10 09:46:22;;;;;;;8.70;4.80;;;;;;;25.09;39.73;101437.19;3588735;40;20420;-62
2022/05/10 09:48:48;;;;;;;8.45;4.47;;;;;;;25.10;39.76;101449.88;3587936;40;20064;-62
2022/05/10 09:51:39;;;;;;;6.30;4.18;;;;;;;25.09;40.10;101437.19;3587279;39;20056;-61
2022/05/10 09:54:21;;;;;;;6.47;4.13;;;;;;;25.30;40.63;101438.53;3588632;40;20067;-61
2022/05/10 09:56:56;;;;;;;5.67;4.40;;;;;;;25.68;39.76;101425.81;3587283;40;20084;-60
2022/05/10 09:59:21;;;;;;;7.63;4.20;;;;;;;26.10;38.81;101436.47;3588205;39;20067;-61
2022/05/10 10:01:54;;;;;;;6.70;4.25;;;;;;;26.32;37.90;101426.47;3585747;40;20055;-61
2022/05/10 10:04:31;;;;;;;;;;;;;;;26.47;37.30;101423.78;3584594;40;20041;-61
2022/05/10 10:07:09;;;;;;;6.07;4.47;;;;;;;26.49;37.50;101416.22;3588935;40;19928;-60
2022/05/10 10:09:39;;;;;;;9.90;4.32;;;;;;;26.66;37.84;101416.09;3585725;39;20136;-60
2022/05/10 10:12:16;;;;;;;11.75;4.63;;;;;;;26.80;36.43;101398.69;3584925;40;20072;-61
2022/05/10 10:14:48;;;;;;;13.45;4.30;;;;;;;27.04;35.75;101406.72;3585200;40;20096;-61
2022/05/10 10:17:33;;;;;;;8.40;4.20;;;;;;;26.91;35.87;101401.00;3586087;40;20071;-61
2022/05/10 10:20:13;;;;;;;6.78;3.63;;;;;;;27.15;36.27;101401.81;3586372;39;20048;-61
2022/05/10 10:22:55;;;;;;;9.32;3.80;;;;;;;27.60;34.28;101395.22;3584950;40;20068;-62
2022/05/10 10:25:32;;;;;;;6.07;3.65;;;;;;;27.75;34.11;101386.91;3586214;40;20052;-61
2022/05/10 10:28:31;;;;;;;7.25;4.18;;;;;;;27.92;33.24;101396.72;3588603;39;20068;-61
2022/05/10 10:31:09;;;;;;;7.18;3.72;;;;;;;28.16;32.92;101401.03;3587957;39;20130;-61
2022/05/10 10:33:46;;;;;;;9.80;4.38;;;;;;;28.24;32.83;101398.09;3589243;40;20058;-62
2022/05/10 10:36:14;;;;;;;8.50;4.20;;;;;;;28.30;32.19;101395.63;3588385;40;20113;-61
2022/05/10 10:39:10;;;;;;;5.88;3.88;;;;;;;28.29;31.97;101396.66;3589195;40;20055;-61
2022/05/10 10:42:05;;;;;;;11.77;5.05;;;;;;;28.35;32.23;101399.47;3589069;40;20116;-62
2022/05/10 10:44:37;;;;;;;8.52;3.80;;;;;;;28.31;31.29;101391.78;3589184;40;20068;-61
2022/05/10 10:47:45;;;;;;;11.90;4.25;;;;;;;28.18;32.02;101411.88;3588487;40;20056;-61
2022/05/10 10:50:33;;;;;;;11.60;4.75;;;;;;;28.00;32.17;101390.19;3590378;40;20054;-63
2022/05/10 10:53:01;;;;;;;11.52;4.40;;;;;;;27.98;33.34;101404.22;3587777;40;20071;-59
2022/05/10 10:55:48;;;;;;;8.50;4.90;;;;;;;27.80;32.06;101392.75;3587312;40;20064;-61
2022/05/10 10:59:09;;;;;;;11.52;4.70;;;;;;;27.89;33.35;101387.97;3588237;39;20409;-59
2022/05/10 11:02:31;;;;;;;12.77;5.18;;;;;;;27.55;32.92;101379.22;3587230;39;20051;-60
2022/05/10 11:05:34;;;;;;;18.15;4.90;;;;;;;27.45;33.51;101383.34;3589251;39;20432;-61
2022/05/10 11:08:18;;;;;;;15.87;4.90;;;;;;;27.39;33.87;101376.69;3588975;39;20365;-60
2022/05/10 11:11:19;;;;;;;10.32;4.53;;;;;;;27.31;34.13;101374.03;3588911;39;20288;-60
2022/05/10 11:14:23;;;;;;;13.48;4.53;;;;;;;27.06;33.81;101360.50;3587922;39;20060;-60
2022/05/10 11:17:22;;;;;;;9.38;4.03;;;;;;;26.90;34.03;101382.75;3588159;39;20074;-60
2022/05/10 11:20:14;;;;;;;7.72;4.38;;;;;;;26.65;34.79;101356.47;3588190;39;20157;-60
2022/05/10 11:22:58;;;;;;;9.48;4.82;;;;;;;26.47;34.48;101352.09;3588698;39;20068;-60
2022/05/10 11:26:13;;;;;;;6.72;3.88;;;;;;;26.56;35.00;101351.00;3586233;39;20044;-60
2022/05/10 11:28:53;;;;;;;13.52;4.53;;;;;;;26.71;34.67;101364.00;3588906;40;20067;-60
2022/05/10 11:31:24;;;;;;;9.52;4.32;;;;;;;26.94;34.75;101359.25;3589159;39;20078;-61
2022/05/10 11:34:41;;;;;;;10.00;3.80;;;;;;;27.12;34.19;101355.22;3587500;39;20088;-61
2022/05/10 11:37:25;;;;;;;7.10;4.43;;;;;;;27.32;34.77;101339.84;3580474;40;20103;-61
2022/05/10 11:40:46;;;;;;;7.10;4.13;;;;;;;27.44;34.29;101340.22;3587908;39;20067;-60
2022/05/10 11:43:50;;;;;;;10.45;4.60;;;;;;;27.34;34.20;101337.75;3587302;39;20361;-60
2022/05/10 11:46:37;;;;;;;;;;;;;;;27.19;33.64;101340.53;3589149;40;20099;-60
2022/05/10 11:49:52;;;;;;;8.48;4.35;;;;;;;27.14;34.65;101317.31;3591397;39;19959;-60
2022/05/10 11:52:44;;;;;;;10.77;4.20;;;;;;;27.06;33.38;101348.59;3588088;40;20064;-59
2022/05/10 11:55:23;;;;;;;14.50;5.45;;;;;;;27.00;34.47;101333.66;3588130;40;20051;-59
2022/05/10 11:57:58;;;;;;;14.90;5.65;;;;;;;27.00;33.12;101328.13;3589926;40;20063;-60
2022/05/10 12:00:27;;;;;;;16.85;4.78;;;;;;;26.93;32.78;101327.19;3587145;40;20371;-60
2022/05/10 12:02:54;;;;;;;9.55;3.97;;;;;;;26.92;33.75;101332.88;3587763;40;20152;-60
2022/05/10 12:05:33;;;;;;;10.20;4.40;;;;;;;26.88;34.17;101328.81;3587530;39;20125;-60